Schedule Details


Flight Number: CTN445
Departure: Schwechat (LOWW) at 14:25
Arrival: Kastela (LDSP) at 15:45
Route: RUPET DCT GRZ DCT RADLY DCT ROKSA/N0319F230 L868 GISER L862 OKLAX

Weather Information
LOWW 242050Z 34006KT CAVOK 22/16 Q1022 NOSIG
LDSP 242100Z VRB02KT CAVOK 26/15 Q1017 TEMPO 05008KT
Schedule Frequency

Route Map